CheckWX is a tool to help pilots better visualize weather data.  It is not intended as a substitute for an official pre-flight weather briefing.

00:28:28 UTC

LXGB METAR
Gibraltar Airport
Gibraltar, Gibraltar
Current

38 mins ago

LXGB 272350Z AUTO 08016KT 9999 // NCD 20/17 Q1020
Observed
May-27 @ 23:50 UTC
Wind
  • 080° at 16 KTS
Visibility
10,000+ meters
Flight Rules
VFR
Cloud Levels
  • Clear skies
Temperature
20°C / 68°F
Dewpoint
17°C / 63°F
Humidity
83%
Altimeter
30.12" Hg
Pressure
1019.92 hPa
Previous

2 hours ago

LXGB 272250Z AUTO 09017KT 9999 // SCT022/// 20/17 Q1021
Observed
May-27 @ 22:50 UTC
Wind
  • 090° at 17 KTS
Visibility
10,000+ meters
Flight Rules
VFR
Cloud Levels
  • Scattered at 2,200' AGL
Temperature
20°C / 68°F
Dewpoint
17°C / 63°F
Humidity
83%
Altimeter
30.15" Hg
Pressure
1020.92 hPa
Previous

3 hours ago

LXGB 272150Z AUTO 07017KT 9999 // BKN021/// 20/17 Q1021
Observed
May-27 @ 21:50 UTC
Wind
  • 070° at 17 KTS
Visibility
10,000+ meters
Flight Rules
MVFR
Cloud Levels
  • Broken at 2,100' AGL
Temperature
20°C / 68°F
Dewpoint
17°C / 63°F
Humidity
83%
Altimeter
30.15" Hg
Pressure
1020.92 hPa